createdAt,value
2023-05-12T00:00:19.781Z,2.67
2023-05-12T00:02:47.431Z,2.97
2023-05-12T00:05:14.848Z,3.10
2023-05-12T00:07:42.220Z,2.90
2023-05-12T00:10:10.256Z,2.67
2023-05-12T00:12:38.957Z,2.83
2023-05-12T00:15:07.048Z,2.73
2023-05-12T00:17:34.396Z,2.50
2023-05-12T00:20:01.797Z,3.00
2023-05-12T00:22:29.717Z,2.87
2023-05-12T00:24:57.046Z,2.97
2023-05-12T00:27:24.446Z,3.57
2023-05-12T00:29:53.412Z,3.00
2023-05-12T00:32:21.194Z,2.93
2023-05-12T00:34:48.615Z,3.00
2023-05-12T00:37:16.108Z,2.80
2023-05-12T00:39:43.438Z,2.87
2023-05-12T00:42:11.834Z,3.40
2023-05-12T00:44:39.402Z,3.00
2023-05-12T00:47:08.282Z,2.80
2023-05-12T00:49:35.688Z,3.03
2023-05-12T00:52:03.499Z,2.77
2023-05-12T00:54:31.177Z,2.80
2023-05-12T00:56:58.594Z,2.90
2023-05-12T00:59:25.988Z,3.00
2023-05-12T01:01:53.583Z,3.10
2023-05-12T01:04:22.658Z,3.00
2023-05-12T01:06:54.987Z,3.20
2023-05-12T01:09:22.478Z,2.57
2023-05-12T01:11:49.921Z,2.97
2023-05-12T01:14:18.461Z,3.03
2023-05-12T01:16:49.036Z,2.97
2023-05-12T01:19:26.174Z,3.00
2023-05-12T01:21:55.039Z,2.80
2023-05-12T01:24:25.274Z,3.17
2023-05-12T01:26:53.999Z,2.70
2023-05-12T01:29:22.153Z,2.80
2023-05-12T01:31:49.823Z,3.00
2023-05-12T01:34:18.475Z,3.00
2023-05-12T01:36:48.648Z,2.90
2023-05-12T01:39:16.086Z,3.13
2023-05-12T01:41:43.830Z,3.00
2023-05-12T01:44:12.994Z,2.73
2023-05-12T01:46:40.590Z,3.00
2023-05-12T01:49:08.182Z,2.77
2023-05-12T01:51:36.449Z,3.03
2023-05-12T01:54:04.292Z,3.33
2023-05-12T01:56:34.424Z,2.70
2023-05-12T01:59:01.858Z,2.83
2023-05-12T02:01:32.209Z,2.87
2023-05-12T02:04:00.268Z,2.70
2023-05-12T02:06:29.140Z,2.80
2023-05-12T02:08:58.166Z,3.07
2023-05-12T02:11:25.578Z,3.07
2023-05-12T02:13:52.959Z,3.00
2023-05-12T02:16:20.567Z,3.17
2023-05-12T02:18:49.524Z,2.87
2023-05-12T02:21:17.035Z,2.77
2023-05-12T02:23:44.468Z,2.63
2023-05-12T02:26:13.202Z,3.10
2023-05-12T02:28:40.936Z,2.80
2023-05-12T02:31:08.859Z,2.67
2023-05-12T02:33:36.732Z,3.17
2023-05-12T02:36:05.857Z,2.87
2023-05-12T02:38:33.302Z,2.90
2023-05-12T02:41:01.025Z,2.90
2023-05-12T02:43:28.580Z,3.20
2023-05-12T02:45:56.450Z,2.87
2023-05-12T02:48:23.979Z,2.87
2023-05-12T02:50:53.238Z,2.63
2023-05-12T02:53:21.974Z,2.80
2023-05-12T02:55:49.707Z,3.03
2023-05-12T02:58:17.163Z,3.00
2023-05-12T03:00:44.937Z,2.70
2023-05-12T03:03:12.413Z,2.90
2023-05-12T03:05:40.751Z,2.90
2023-05-12T03:08:08.173Z,2.60
2023-05-12T03:10:37.642Z,2.90
2023-05-12T03:13:04.996Z,2.83
2023-05-12T03:15:32.413Z,2.90
2023-05-12T03:17:59.826Z,3.00
2023-05-12T03:20:27.216Z,3.20
2023-05-12T03:22:54.705Z,2.93
2023-05-12T03:25:22.033Z,2.90
2023-05-12T03:27:51.205Z,3.03
2023-05-12T03:30:18.913Z,3.07
2023-05-12T03:32:47.281Z,2.90
2023-05-12T03:35:14.714Z,3.13
2023-05-12T03:37:42.061Z,3.07
2023-05-12T03:40:10.111Z,3.10
2023-05-12T03:42:37.454Z,3.03
2023-05-12T03:45:07.035Z,3.50
2023-05-12T03:47:35.919Z,3.70
2023-05-12T03:50:03.655Z,3.30
2023-05-12T03:52:31.248Z,3.50
2023-05-12T03:54:58.782Z,3.03
2023-05-12T03:57:26.356Z,3.00
2023-05-12T03:59:53.712Z,3.10
2023-05-12T04:02:22.910Z,3.10
2023-05-12T04:04:50.390Z,3.40
2023-05-12T04:07:17.724Z,3.23
2023-05-12T04:09:45.087Z,3.60
2023-05-12T04:12:12.556Z,3.07
2023-05-12T04:14:43.177Z,3.37
2023-05-12T04:17:11.002Z,3.53
2023-05-12T04:19:39.697Z,3.40
2023-05-12T04:22:07.202Z,3.57
2023-05-12T04:24:34.868Z,3.40
2023-05-12T04:27:02.273Z,3.20
2023-05-12T04:29:29.927Z,3.33
2023-05-12T04:31:57.356Z,3.17
2023-05-12T04:34:24.877Z,25.67
2023-05-12T04:36:53.559Z,25.47
2023-05-12T04:39:21.268Z,21.97
2023-05-12T04:41:48.857Z,14.60
2023-05-12T04:44:16.534Z,7.77
2023-05-12T04:46:44.199Z,14.60
2023-05-12T04:49:11.845Z,4.60
2023-05-12T04:51:42.250Z,3.83
2023-05-12T04:54:11.519Z,4.07
2023-05-12T04:56:39.462Z,4.00
2023-05-12T04:59:08.037Z,3.90
2023-05-12T05:01:35.749Z,4.10
2023-05-12T05:04:03.547Z,5.23
2023-05-12T05:06:31.669Z,6.67
2023-05-12T05:09:00.342Z,9.37
2023-05-12T05:11:29.240Z,7.53
2023-05-12T05:13:56.643Z,6.33
2023-05-12T05:16:24.415Z,7.47
2023-05-12T05:18:53.041Z,6.63
2023-05-12T05:21:20.918Z,6.23
2023-05-12T05:23:48.471Z,6.10
2023-05-12T05:26:16.487Z,5.10
2023-05-12T05:28:45.413Z,6.07
2023-05-12T05:31:15.871Z,5.33
2023-05-12T05:33:43.380Z,4.63
2023-05-12T05:36:11.153Z,4.57
2023-05-12T05:38:38.721Z,4.50
2023-05-12T05:41:06.413Z,4.00
2023-05-12T05:43:33.942Z,4.10
2023-05-12T05:46:03.464Z,3.50
2023-05-12T05:48:30.810Z,3.37
2023-05-12T05:50:58.205Z,2.97
2023-05-12T05:53:26.144Z,3.40
2023-05-12T05:55:53.816Z,3.40
2023-05-12T05:58:21.410Z,3.20
2023-05-12T06:00:49.582Z,3.30
2023-05-12T06:03:18.697Z,3.37
2023-05-12T06:05:46.212Z,3.80
2023-05-12T06:08:13.753Z,4.67
2023-05-12T06:10:42.002Z,3.40
2023-05-12T06:13:09.417Z,3.60
2023-05-12T06:15:36.901Z,3.27
2023-05-12T06:18:04.355Z,3.43
2023-05-12T06:20:34.031Z,3.50
2023-05-12T06:23:02.351Z,3.30
2023-05-12T06:25:29.705Z,3.30
2023-05-12T06:27:57.054Z,2.93
2023-05-12T06:30:24.468Z,3.40
2023-05-12T06:32:55.387Z,3.00
2023-05-12T06:35:22.909Z,3.03
2023-05-12T06:37:51.621Z,3.50
2023-05-12T06:40:19.246Z,3.40
2023-05-12T06:42:47.537Z,3.10
2023-05-12T06:45:21.255Z,3.27
2023-05-12T06:47:48.971Z,3.03
2023-05-12T06:50:16.981Z,2.90
2023-05-12T06:52:44.338Z,3.30
2023-05-12T06:55:13.145Z,2.83
2023-05-12T06:57:41.401Z,2.70
2023-05-12T07:00:10.603Z,3.60
2023-05-12T07:02:37.989Z,3.47
2023-05-12T07:05:05.622Z,3.10
2023-05-12T07:07:32.958Z,2.90
2023-05-12T07:10:00.349Z,2.90
2023-05-12T07:12:29.040Z,3.00
2023-05-12T07:14:56.378Z,2.90
2023-05-12T07:17:23.739Z,2.40
2023-05-12T07:19:51.650Z,2.83
2023-05-12T07:22:21.149Z,2.83
2023-05-12T07:24:48.621Z,2.60
2023-05-12T07:27:16.006Z,2.47
2023-05-12T07:29:44.774Z,2.77
2023-05-12T07:32:12.278Z,2.73
2023-05-12T07:34:39.670Z,2.43
2023-05-12T07:37:07.075Z,2.27
2023-05-12T07:39:34.514Z,2.50
2023-05-12T07:42:01.874Z,2.93
2023-05-12T07:44:29.228Z,2.67
2023-05-12T07:46:58.128Z,2.53
2023-05-12T07:49:25.552Z,2.57
2023-05-12T07:51:52.941Z,2.97
2023-05-12T07:54:20.285Z,2.83
2023-05-12T07:56:47.617Z,2.77
2023-05-12T07:59:15.440Z,2.87
2023-05-12T08:01:42.947Z,2.40
2023-05-12T08:04:11.707Z,2.63
2023-05-12T08:06:39.251Z,2.67
2023-05-12T08:09:06.617Z,2.60
2023-05-12T08:11:33.950Z,2.70
2023-05-12T08:14:01.404Z,2.47
2023-05-12T08:16:29.089Z,2.60
2023-05-12T08:18:56.482Z,2.60
2023-05-12T08:21:25.166Z,2.70
2023-05-12T08:23:52.734Z,2.70
2023-05-12T08:26:20.061Z,2.37
2023-05-12T08:28:47.496Z,2.63
2023-05-12T08:31:14.997Z,2.73
2023-05-12T08:33:42.463Z,2.50
2023-05-12T08:36:10.105Z,2.60
2023-05-12T08:38:38.797Z,2.67
2023-05-12T08:41:12.432Z,2.30
2023-05-12T08:43:42.853Z,2.67
2023-05-12T08:46:10.375Z,3.23
2023-05-12T08:48:39.348Z,2.67
2023-05-12T08:51:09.918Z,2.40
2023-05-12T08:53:39.075Z,2.77
2023-05-12T08:58:41.970Z,1.83
2023-05-12T09:01:11.910Z,2.60
2023-05-12T09:03:39.789Z,2.00
2023-05-12T09:06:07.451Z,2.13
2023-05-12T09:08:35.805Z,2.27
2023-05-12T09:11:04.687Z,1.93
2023-05-12T09:13:37.067Z,1.63
2023-05-12T09:16:05.273Z,1.60
2023-05-12T09:18:43.709Z,1.67
2023-05-12T09:21:11.109Z,2.20
2023-05-12T09:23:38.443Z,1.70
2023-05-12T09:26:07.189Z,1.73
2023-05-12T09:28:38.461Z,1.80
2023-05-12T09:31:15.428Z,1.63
2023-05-12T09:33:42.790Z,1.50
2023-05-12T09:36:10.145Z,1.40
2023-05-12T09:38:37.508Z,1.83
2023-05-12T09:41:04.910Z,1.53
2023-05-12T09:43:33.637Z,1.70
2023-05-12T09:46:05.761Z,1.70
2023-05-12T09:48:33.200Z,1.77
2023-05-12T09:51:01.119Z,1.63
2023-05-12T09:53:28.780Z,1.80
2023-05-12T09:55:56.110Z,1.80
2023-05-12T09:58:24.586Z,1.40
2023-05-12T10:03:24.964Z,1.80
2023-05-12T10:05:54.532Z,2.23
2023-05-12T10:08:26.280Z,2.00
2023-05-12T10:10:54.596Z,2.33
2023-05-12T10:13:22.282Z,2.20
2023-05-12T10:15:50.801Z,1.97
2023-05-12T10:18:19.632Z,2.40
2023-05-12T10:20:48.187Z,2.03
2023-05-12T10:23:16.239Z,2.00
2023-05-12T10:25:44.269Z,1.80
2023-05-12T10:28:12.623Z,1.90
2023-05-12T10:30:40.733Z,2.03
2023-05-12T10:33:11.372Z,1.53
2023-05-12T10:35:40.582Z,1.43
2023-05-12T10:38:08.564Z,1.60
2023-05-12T10:40:36.003Z,1.53
2023-05-12T10:43:03.668Z,1.40
2023-05-12T10:45:36.604Z,1.90
2023-05-12T10:48:08.311Z,1.83
2023-05-12T10:50:35.898Z,1.90
2023-05-12T10:53:04.597Z,1.60
2023-05-12T10:55:32.934Z,1.70
2023-05-12T10:58:07.467Z,1.70
2023-05-12T11:00:44.838Z,1.67
2023-05-12T11:03:15.079Z,2.03
2023-05-12T11:05:44.180Z,1.80
2023-05-12T11:08:14.201Z,1.90
2023-05-12T11:10:42.514Z,1.83
2023-05-12T11:13:10.354Z,2.17
2023-05-12T11:15:38.358Z,1.53
2023-05-12T11:18:05.968Z,1.63
2023-05-12T11:20:33.414Z,1.90
2023-05-12T11:23:00.783Z,1.83
2023-05-12T11:25:29.521Z,1.70
2023-05-12T11:27:56.982Z,1.90
2023-05-12T11:30:24.559Z,1.80
2023-05-12T11:33:00.861Z,1.83
2023-05-12T11:35:31.307Z,1.90
2023-05-12T11:37:59.032Z,1.83
2023-05-12T11:40:26.376Z,2.13
2023-05-12T11:42:56.153Z,1.83
2023-05-12T11:45:24.978Z,1.83
2023-05-12T11:47:52.706Z,1.87
2023-05-12T11:50:23.751Z,1.97
2023-05-12T11:52:51.936Z,1.73
2023-05-12T11:55:25.526Z,1.67
2023-05-12T11:57:58.378Z,1.87
2023-05-12T12:00:29.685Z,1.80
2023-05-12T12:03:06.517Z,1.67
2023-05-12T12:05:34.080Z,1.67
2023-05-12T12:08:09.021Z,1.80
2023-05-12T12:10:36.841Z,1.70
2023-05-12T12:13:05.565Z,2.00
2023-05-12T12:15:33.131Z,1.97
2023-05-12T12:18:00.811Z,1.90
2023-05-12T12:20:28.305Z,1.90
2023-05-12T12:22:55.662Z,2.00
2023-05-12T12:25:23.648Z,2.00
2023-05-12T12:27:52.864Z,2.07
2023-05-12T12:30:22.160Z,2.20
2023-05-12T12:32:49.544Z,1.90
2023-05-12T12:35:17.200Z,2.00
2023-05-12T12:37:51.091Z,1.80
2023-05-12T12:40:18.789Z,2.00
2023-05-12T12:42:46.708Z,2.20
2023-05-12T12:45:14.405Z,1.90
2023-05-12T12:47:43.190Z,2.00
2023-05-12T12:50:10.825Z,2.10
2023-05-12T12:52:38.918Z,1.90
2023-05-12T12:55:06.880Z,2.00
2023-05-12T12:57:34.806Z,2.07
2023-05-12T13:00:02.314Z,1.83
2023-05-12T13:02:29.778Z,2.10
2023-05-12T13:04:58.490Z,1.90
2023-05-12T13:07:25.847Z,2.20
2023-05-12T13:09:53.373Z,2.03
2023-05-12T13:12:20.757Z,2.10
2023-05-12T13:14:48.199Z,2.20
2023-05-12T13:17:15.546Z,2.50
2023-05-12T13:19:43.401Z,2.37
2023-05-12T13:22:12.245Z,2.70
2023-05-12T13:24:39.596Z,2.57
2023-05-12T13:27:08.338Z,2.40
2023-05-12T13:29:36.009Z,2.53
2023-05-12T13:32:03.675Z,2.63
2023-05-12T13:34:31.066Z,2.40
2023-05-12T13:36:59.014Z,2.37
2023-05-12T13:39:27.754Z,2.33
2023-05-12T13:41:55.171Z,2.70
2023-05-12T13:44:22.635Z,2.20
2023-05-12T13:46:50.111Z,2.70
2023-05-12T13:49:19.720Z,2.57
2023-05-12T13:51:47.167Z,2.60
2023-05-12T13:54:14.522Z,2.93
2023-05-12T13:56:43.320Z,2.10
2023-05-12T13:59:11.224Z,2.20
2023-05-12T14:01:39.209Z,2.40
2023-05-12T14:04:06.709Z,2.30
2023-05-12T14:06:34.819Z,2.50
2023-05-12T14:09:02.302Z,2.60
2023-05-12T14:11:29.652Z,4.00
2023-05-12T14:14:00.198Z,2.53
2023-05-12T14:16:28.127Z,2.57
2023-05-12T14:18:55.787Z,2.60
2023-05-12T14:21:23.593Z,2.77
2023-05-12T14:23:51.749Z,2.63
2023-05-12T14:26:19.273Z,2.33
2023-05-12T14:28:47.010Z,2.50
2023-05-12T14:31:15.941Z,2.77
2023-05-12T14:33:43.624Z,2.60
2023-05-12T14:36:11.146Z,2.83
2023-05-12T14:38:38.462Z,2.87
2023-05-12T14:41:08.081Z,2.70
2023-05-12T14:43:35.491Z,3.13
2023-05-12T14:46:03.115Z,2.90
2023-05-12T14:48:31.890Z,3.10
2023-05-12T14:50:59.253Z,3.20
2023-05-12T14:53:26.807Z,2.70
2023-05-12T14:55:54.253Z,2.60
2023-05-12T14:58:23.880Z,2.50
2023-05-12T15:00:52.066Z,2.20
2023-05-12T15:03:20.852Z,2.20
2023-05-12T15:08:21.302Z,2.10
2023-05-12T15:10:48.803Z,1.93
2023-05-12T15:13:18.509Z,2.20
2023-05-12T15:15:46.584Z,2.60
2023-05-12T15:18:13.968Z,2.30
2023-05-12T15:20:41.426Z,2.87
2023-05-12T15:23:10.376Z,2.57
2023-05-12T15:25:39.054Z,2.40
2023-05-12T15:28:06.628Z,2.70
2023-05-12T15:30:35.631Z,3.00
2023-05-12T15:33:04.804Z,2.43
2023-05-12T15:35:32.652Z,2.60
2023-05-12T15:38:00.200Z,2.03
2023-05-12T15:40:30.572Z,2.43
2023-05-12T15:42:58.320Z,2.27
2023-05-12T15:45:25.686Z,2.27
2023-05-12T15:47:53.331Z,1.90
2023-05-12T15:50:22.760Z,2.63
2023-05-12T15:52:50.546Z,2.60
2023-05-12T15:55:18.308Z,4.80
2023-05-12T15:57:47.111Z,4.17
2023-05-12T16:00:15.365Z,5.47
2023-05-12T16:02:42.844Z,3.90
2023-05-12T16:05:10.485Z,3.67
2023-05-12T16:07:38.776Z,2.77
2023-05-12T16:10:06.493Z,2.47
2023-05-12T16:12:33.848Z,2.20
2023-05-12T16:15:02.932Z,2.40
2023-05-12T16:17:30.321Z,2.70
2023-05-12T16:19:57.770Z,2.73
2023-05-12T16:22:25.153Z,2.10
2023-05-12T16:24:53.720Z,2.27
2023-05-12T16:27:21.152Z,2.37
2023-05-12T16:29:49.529Z,2.00
2023-05-12T16:32:18.191Z,2.00
2023-05-12T16:34:45.606Z,1.97
2023-05-12T16:37:13.550Z,1.63
2023-05-12T16:39:40.923Z,2.00
2023-05-12T16:42:08.380Z,2.17
2023-05-12T16:44:35.747Z,1.97
2023-05-12T16:47:03.360Z,1.80
2023-05-12T16:49:32.029Z,1.80
2023-05-12T16:51:59.354Z,1.90
2023-05-12T16:54:26.842Z,2.63
2023-05-12T16:56:56.320Z,2.50
2023-05-12T16:59:23.666Z,2.00
2023-05-12T17:01:51.293Z,1.70
2023-05-12T17:04:18.649Z,2.00
2023-05-12T17:06:49.510Z,2.00
2023-05-12T17:09:17.879Z,2.10
2023-05-12T17:11:45.222Z,2.20
2023-05-12T17:14:12.575Z,2.30
2023-05-12T17:16:40.023Z,1.90
2023-05-12T17:21:37.714Z,2.47
2023-05-12T17:24:07.179Z,2.10
2023-05-12T17:26:34.563Z,2.20
2023-05-12T17:29:02.166Z,2.60
2023-05-12T17:31:29.618Z,1.87
2023-05-12T17:33:56.980Z,1.80
2023-05-12T17:36:24.371Z,2.03
2023-05-12T17:38:52.122Z,2.00
2023-05-12T17:41:20.844Z,1.70
2023-05-12T17:43:48.214Z,4.43
2023-05-12T17:46:15.566Z,3.63
2023-05-12T17:48:43.007Z,2.23
2023-05-12T17:51:10.352Z,2.40
2023-05-12T17:53:37.888Z,2.30
2023-05-12T17:56:05.817Z,2.10
2023-05-12T17:58:34.522Z,2.60
2023-05-12T18:01:02.049Z,2.80
2023-05-12T18:03:29.692Z,2.80
2023-05-12T18:05:57.130Z,2.77
2023-05-12T18:08:24.616Z,2.17
2023-05-12T18:10:52.096Z,2.40
2023-05-12T18:13:19.787Z,2.00
2023-05-12T18:15:48.962Z,2.10
2023-05-12T18:18:16.597Z,2.07
2023-05-12T18:20:44.309Z,2.00
2023-05-12T18:23:12.076Z,2.57
2023-05-12T18:25:40.027Z,2.07
2023-05-12T18:28:07.696Z,2.00
2023-05-12T18:30:36.239Z,2.20
2023-05-12T18:33:05.696Z,2.20
2023-05-12T18:35:33.371Z,2.30
2023-05-12T18:38:00.705Z,2.10
2023-05-12T18:40:28.052Z,2.30
2023-05-12T18:42:55.407Z,2.30
2023-05-12T18:45:23.626Z,2.20
2023-05-12T18:47:51.726Z,2.60
2023-05-12T18:50:20.675Z,2.23
2023-05-12T18:52:48.103Z,2.50
2023-05-12T18:55:17.918Z,2.13
2023-05-12T18:57:46.421Z,2.00
2023-05-12T19:00:14.198Z,2.40
2023-05-12T19:02:42.654Z,2.10
2023-05-12T19:05:11.019Z,2.10
2023-05-12T19:07:39.691Z,2.00
2023-05-12T19:10:07.396Z,2.30
2023-05-12T19:12:35.054Z,2.13
2023-05-12T19:15:02.519Z,2.37
2023-05-12T19:17:29.893Z,2.30
2023-05-12T19:19:57.294Z,2.27
2023-05-12T19:22:25.857Z,2.87
2023-05-12T19:24:55.970Z,3.07
2023-05-12T19:27:23.682Z,2.60
2023-05-12T19:29:51.169Z,2.70
2023-05-12T19:32:20.709Z,2.60
2023-05-12T19:34:50.924Z,2.40
2023-05-12T19:37:20.355Z,2.40
2023-05-12T19:39:48.017Z,2.60
2023-05-12T19:42:16.687Z,2.40
2023-05-12T19:44:44.005Z,2.70
2023-05-12T19:47:12.520Z,2.93
2023-05-12T19:49:39.903Z,2.60
2023-05-12T19:52:07.573Z,2.33
2023-05-12T19:54:34.935Z,2.47
2023-05-12T19:57:02.809Z,2.60
2023-05-12T19:59:31.490Z,2.47
2023-05-12T20:02:01.364Z,2.70
2023-05-12T20:04:28.728Z,2.80
2023-05-12T20:06:56.068Z,2.90
2023-05-12T20:09:24.736Z,3.20
2023-05-12T20:11:52.175Z,3.30
2023-05-12T20:14:19.523Z,3.20
2023-05-12T20:16:48.247Z,3.10
2023-05-12T20:19:16.758Z,2.97
2023-05-12T20:21:44.207Z,2.97
2023-05-12T20:24:11.549Z,2.97
2023-05-12T20:26:38.939Z,3.03
2023-05-12T20:29:06.292Z,2.93
2023-05-12T20:31:33.800Z,2.90
2023-05-12T20:34:02.697Z,2.90
2023-05-12T20:36:30.357Z,2.80
2023-05-12T20:38:58.076Z,2.87
2023-05-12T20:41:25.430Z,3.20
2023-05-12T20:43:53.018Z,3.23
2023-05-12T20:46:20.757Z,3.60
2023-05-12T20:48:48.130Z,3.57
2023-05-12T20:51:17.125Z,3.03
2023-05-12T20:53:44.482Z,3.50
2023-05-12T20:56:13.073Z,3.00
2023-05-12T20:58:40.570Z,3.00
2023-05-12T21:01:08.000Z,2.93
2023-05-12T21:03:35.628Z,3.27
2023-05-12T21:06:03.231Z,3.10
2023-05-12T21:08:32.178Z,3.27
2023-05-12T21:10:59.974Z,2.93
2023-05-12T21:13:27.588Z,3.20
2023-05-12T21:15:54.969Z,3.40
2023-05-12T21:18:22.984Z,3.20
2023-05-12T21:20:50.528Z,2.90
2023-05-12T21:23:18.315Z,3.13
2023-05-12T21:25:47.077Z,2.97
2023-05-12T21:28:15.276Z,3.17
2023-05-12T21:30:42.989Z,2.97
2023-05-12T21:33:10.385Z,3.03
2023-05-12T21:35:37.927Z,3.37
2023-05-12T21:38:07.221Z,3.67
2023-05-12T21:40:34.589Z,2.90
2023-05-12T21:43:03.448Z,3.30
2023-05-12T21:45:30.772Z,3.30
2023-05-12T21:47:58.179Z,3.00
2023-05-12T21:50:25.543Z,3.33
2023-05-12T21:52:52.903Z,3.43
2023-05-12T21:55:20.342Z,3.60
2023-05-12T21:57:47.688Z,3.80
2023-05-12T22:00:19.915Z,3.10
2023-05-12T22:02:47.852Z,3.13
2023-05-12T22:05:15.328Z,3.03
2023-05-12T22:07:42.696Z,3.40
2023-05-12T22:10:10.118Z,3.47
2023-05-12T22:12:37.959Z,3.80
2023-05-12T22:15:05.651Z,3.30
2023-05-12T22:17:34.428Z,3.50
2023-05-12T22:20:01.846Z,3.30
2023-05-12T22:22:29.324Z,3.40
2023-05-12T22:24:57.359Z,3.40
2023-05-12T22:27:24.744Z,3.10
2023-05-12T22:29:52.093Z,3.10
2023-05-12T22:32:19.422Z,3.30
2023-05-12T22:34:48.112Z,2.87
2023-05-12T22:37:15.497Z,3.30
2023-05-12T22:39:42.827Z,3.50
2023-05-12T22:42:10.195Z,3.00
2023-05-12T22:44:38.441Z,3.20
2023-05-12T22:47:06.412Z,2.97
2023-05-12T22:49:33.801Z,3.00
2023-05-12T22:52:02.557Z,2.73
2023-05-12T22:54:29.883Z,2.50
2023-05-12T22:56:57.238Z,2.53
2023-05-12T22:59:24.671Z,3.13
2023-05-12T23:01:52.144Z,3.03
2023-05-12T23:04:19.535Z,2.77
2023-05-12T23:06:46.925Z,2.87
2023-05-12T23:09:15.820Z,2.53
2023-05-12T23:11:43.181Z,2.67
2023-05-12T23:14:11.309Z,2.53
2023-05-12T23:16:38.740Z,2.70
2023-05-12T23:19:06.168Z,2.60
2023-05-12T23:21:33.739Z,2.10
2023-05-12T23:24:01.139Z,2.30
2023-05-12T23:26:29.808Z,2.20
2023-05-12T23:28:57.161Z,2.63
2023-05-12T23:31:24.546Z,2.30
2023-05-12T23:33:52.108Z,2.40
2023-05-12T23:36:19.565Z,2.03
2023-05-12T23:38:50.624Z,2.40
2023-05-12T23:41:17.982Z,2.37
2023-05-12T23:43:46.817Z,2.57
2023-05-12T23:46:14.200Z,2.50
2023-05-12T23:48:41.563Z,2.10
2023-05-12T23:51:09.122Z,2.60
2023-05-12T23:53:36.446Z,2.10
2023-05-12T23:56:04.017Z,2.33
2023-05-12T23:58:31.424Z,2.20
